Time;durP1;ratioP1;P1;durP2;ratioP2;P2;SDS_P1;SDS_P2;PMS_P1;PMS_P2;Temp;Humidity;BMP_temperature;BMP_pressure;BME280_temperature;BME280_humidity;BME280_pressure;Samples;Min_cycle;Max_cycle;Signal;HPM_P1;HPM_P2
2021/03/01 00:01:09;;;;;;;6.45;4.28;;;;;;;1.62;96.13;99585.83;1812728;79;21136;-59
2021/03/01 00:03:38;;;;;;;6.40;4.58;;;;;;;1.55;96.36;99582.45;1812767;79;21152;-59
2021/03/01 00:06:06;;;;;;;6.95;4.05;;;;;;;1.52;96.41;99586.97;1806451;79;21369;-60
2021/03/01 00:08:34;;;;;;;8.70;4.15;;;;;;;1.49;96.49;99586.41;1797093;79;21308;-57
2021/03/01 00:11:04;;;;;;;5.65;4.10;;;;;;;1.48;96.43;99585.06;1795749;80;21135;-58
2021/03/01 00:13:32;;;;;;;8.13;3.98;;;;;;;1.45;96.35;99597.21;1796725;79;21159;-59
2021/03/01 00:16:01;;;;;;;6.83;3.70;;;;;;;1.43;96.59;99597.52;1797125;79;21104;-59
2021/03/01 00:18:30;;;;;;;6.58;3.62;;;;;;;1.48;96.84;99597.78;1746180;81;21735;-60
2021/03/01 00:20:58;;;;;;;5.67;3.92;;;;;;;1.54;96.79;99595.97;1797109;79;21154;-60
2021/03/01 00:23:27;;;;;;;5.37;3.35;;;;;;;1.59;96.61;99598.38;1796899;80;21265;-59
2021/03/01 00:25:54;;;;;;;6.20;3.40;;;;;;;1.65;96.47;99593.62;1797227;79;21573;-59
2021/03/01 00:28:22;;;;;;;4.85;3.05;;;;;;;1.66;96.15;99589.05;1797074;79;21103;-60
2021/03/01 00:30:50;;;;;;;5.87;3.67;;;;;;;1.65;95.98;99592.36;1746920;81;21274;-59
2021/03/01 00:33:17;;;;;;;5.37;3.17;;;;;;;1.66;95.94;99598.81;1811636;79;21204;-58
2021/03/01 00:35:45;;;;;;;5.78;3.58;;;;;;;1.67;95.91;99592.05;1812554;79;21255;-59
2021/03/01 00:38:14;;;;;;;5.00;3.05;;;;;;;1.68;95.90;99609.96;1812920;79;21277;-60
2021/03/01 00:40:43;;;;;;;4.25;2.50;;;;;;;1.67;95.61;99609.45;1812687;79;21166;-60
2021/03/01 00:43:10;;;;;;;5.78;3.40;;;;;;;1.67;95.58;99611.14;1812773;79;21157;-60
2021/03/01 00:45:38;;;;;;;4.47;2.87;;;;;;;1.63;95.60;99611.37;1812656;79;21322;-60
2021/03/01 00:48:08;;;;;;;4.42;2.90;;;;;;;1.62;95.66;99612.14;1812623;79;21150;-59
2021/03/01 00:50:36;;;;;;;6.28;3.95;;;;;;;1.64;95.56;99608.42;1811302;79;21214;-63
2021/03/01 00:53:04;;;;;;;5.45;3.80;;;;;;;1.64;95.53;99616.92;1811136;79;21348;-59
2021/03/01 00:55:33;;;;;;;5.65;3.65;;;;;;;1.65;95.54;99618.67;1811623;79;21214;-59
2021/03/01 00:58:01;;;;;;;6.30;3.80;;;;;;;1.64;95.50;99627.10;1812559;79;21158;-59
2021/03/01 01:00:29;;;;;;;5.25;3.10;;;;;;;1.65;95.39;99639.42;1812941;79;21276;-59
2021/03/01 01:03:00;;;;;;;5.35;3.17;;;;;;;1.67;95.50;99649.30;1812908;79;21276;-60
2021/03/01 01:05:39;;;;;;;5.15;3.10;;;;;;;1.66;95.28;99662.82;1792806;79;21155;-58
2021/03/01 01:08:09;;;;;;;5.28;3.27;;;;;;;1.58;95.22;99662.75;1812859;79;21275;-58
2021/03/01 01:10:37;;;;;;;4.95;2.70;;;;;;;1.54;95.27;99672.28;1812747;79;21139;-59
2021/03/01 01:13:06;;;;;;;5.15;2.60;;;;;;;1.50;95.38;99677.20;1812947;79;21141;-58
2021/03/01 01:15:36;;;;;;;5.45;3.52;;;;;;;1.46;95.42;99684.16;1812836;79;21170;-60
2021/03/01 01:18:06;;;;;;;6.05;3.62;;;;;;;1.45;95.66;99692.95;1812731;79;21165;-60
2021/03/01 01:20:35;;;;;;;5.85;3.42;;;;;;;1.47;95.80;99692.25;1812972;79;21265;-58
2021/03/01 01:23:03;;;;;;;4.60;3.30;;;;;;;1.46;95.74;99695.59;1812738;79;21289;-59
2021/03/01 01:25:31;;;;;;;5.45;2.75;;;;;;;1.45;95.76;99705.30;1813170;79;21177;-59
2021/03/01 01:27:59;;;;;;;5.25;2.90;;;;;;;1.43;95.77;99709.81;1812879;79;21260;-58
2021/03/01 01:30:28;;;;;;;4.22;2.50;;;;;;;1.39;95.79;99721.45;1812949;79;21146;-59
2021/03/01 01:32:55;;;;;;;4.78;3.02;;;;;;;1.36;95.72;99721.27;1812859;79;21300;-58
2021/03/01 01:35:23;;;;;;;4.62;2.90;;;;;;;1.37;95.95;99724.69;1813078;79;21139;-57
2021/03/01 01:37:51;;;;;;;5.00;2.75;;;;;;;1.37;95.84;99735.73;1812873;79;21256;-58
2021/03/01 01:40:22;;;;;;;4.20;2.62;;;;;;;1.36;95.81;99730.58;1812874;79;21260;-59
2021/03/01 01:42:52;;;;;;;5.00;2.90;;;;;;;1.36;95.84;99733.98;1813199;79;21324;-59
2021/03/01 01:45:23;;;;;;;4.72;2.72;;;;;;;1.33;95.75;99738.90;1813063;79;21264;-59
2021/03/01 01:47:53;;;;;;;4.75;3.10;;;;;;;1.35;95.86;99742.78;1814470;79;21331;-59
2021/03/01 01:50:23;;;;;;;4.90;2.90;;;;;;;1.37;95.92;99743.77;1821544;79;21158;-61
2021/03/01 01:52:54;;;;;;;3.80;2.60;;;;;;;1.40;95.87;99742.30;1821658;79;21277;-59
2021/03/01 01:55:25;;;;;;;4.45;2.60;;;;;;;1.41;95.30;99746.98;1821653;79;21114;-61
2021/03/01 01:57:53;;;;;;;5.00;3.03;;;;;;;1.39;95.39;99747.28;1821910;79;21142;-59
2021/03/01 02:03:04;;;;;;;4.85;2.92;;;;;;;1.41;95.46;99740.23;1821606;79;21142;-61
2021/03/01 02:05:36;;;;;;;4.90;2.83;;;;;;;1.46;95.40;99739.23;1821449;79;21118;-60
2021/03/01 02:08:22;;;;;;;5.58;3.08;;;;;;;1.50;95.25;99737.34;1821837;79;21663;-61
2021/03/01 02:11:11;;;;;;;5.20;2.80;;;;;;;1.52;94.95;99740.45;1782780;80;21277;-62
2021/03/01 02:13:46;;;;;;;3.70;2.55;;;;;;;1.55;94.74;99739.76;1757253;80;21161;-61
2021/03/01 02:16:22;;;;;;;3.60;2.35;;;;;;;1.52;94.58;99751.91;1782128;80;21284;-59
2021/03/01 02:18:49;;;;;;;5.35;3.12;;;;;;;1.50;94.51;99744.60;1782548;80;21154;-61
2021/03/01 02:21:17;;;;;;;6.17;3.05;;;;;;;1.51;94.49;99745.07;1821546;79;21260;-61
2021/03/01 02:23:45;;;;;;;4.58;3.27;;;;;;;1.49;94.52;99749.19;1821531;79;21269;-59
2021/03/01 02:26:20;;;;;;;4.45;3.10;;;;;;;1.50;94.62;99747.14;1821668;79;21276;-60
2021/03/01 02:28:56;;;;;;;5.10;3.45;;;;;;;1.52;94.65;99745.55;1821547;79;21158;-61
2021/03/01 02:31:26;;;;;;;5.20;3.30;;;;;;;1.58;94.67;99754.33;1821531;79;21102;-59
2021/03/01 02:33:58;;;;;;;5.37;3.40;;;;;;;1.62;94.71;99755.88;1821473;79;21295;-62
2021/03/01 02:36:40;;;;;;;5.22;3.50;;;;;;;1.66;94.45;99773.09;1821605;79;21288;-61
2021/03/01 02:39:10;;;;;;;5.55;3.83;;;;;;;1.68;94.29;99773.16;1821379;79;21141;-60
2021/03/01 02:41:38;;;;;;;6.45;3.58;;;;;;;1.69;94.21;99786.39;1821408;79;21284;-58
2021/03/01 02:44:07;;;;;;;5.92;3.85;;;;;;;1.65;93.94;99792.06;1821136;79;21177;-60
2021/03/01 02:46:36;;;;;;;5.53;3.77;;;;;;;1.55;94.10;99794.45;1821423;79;21313;-60
2021/03/01 02:49:07;;;;;;;4.75;3.12;;;;;;;1.53;94.37;99798.59;1821647;79;21201;-58
2021/03/01 02:51:37;;;;;;;5.30;3.50;;;;;;;1.52;94.45;99801.50;1821799;79;21154;-59
2021/03/01 02:54:06;;;;;;;5.40;3.50;;;;;;;1.54;94.46;99796.52;1821453;79;21178;-60
2021/03/01 02:56:34;;;;;;;5.95;3.80;;;;;;;1.54;94.46;99807.09;1821672;78;21288;-59
2021/03/01 02:59:05;;;;;;;6.22;3.55;;;;;;;1.54;94.54;99802.87;1821873;79;21272;-58
2021/03/01 03:01:34;;;;;;;5.10;3.40;;;;;;;1.58;94.51;99811.56;1821869;79;21302;-59
2021/03/01 03:04:03;;;;;;;6.97;3.22;;;;;;;1.60;94.55;99823.59;1821645;79;21315;-59
2021/03/01 03:06:35;;;;;;;4.97;3.10;;;;;;;1.64;94.40;99819.58;1821742;79;21166;-57
2021/03/01 03:09:08;;;;;;;5.35;3.20;;;;;;;1.63;94.25;99821.25;1821814;79;21175;-59
2021/03/01 03:11:39;;;;;;;6.55;3.30;;;;;;;1.60;94.18;99830.34;1821520;78;21280;-60
2021/03/01 03:14:10;;;;;;;4.30;2.87;;;;;;;1.50;94.16;99841.26;1821822;79;21284;-60
2021/03/01 03:16:40;;;;;;;5.37;3.17;;;;;;;1.44;94.26;99837.45;1821672;79;21572;-59
2021/03/01 03:19:09;;;;;;;5.90;2.85;;;;;;;1.40;94.46;99846.56;1821941;78;21150;-58
2021/03/01 03:21:36;;;;;;;5.08;3.22;;;;;;;1.36;94.48;99845.88;1821846;79;21149;-59
2021/03/01 03:24:07;;;;;;;4.53;2.95;;;;;;;1.32;94.53;99850.27;1821736;78;21121;-60
2021/03/01 03:26:35;;;;;;;4.67;3.05;;;;;;;1.30;94.56;99854.02;1821880;79;21165;-59
2021/03/01 03:29:03;;;;;;;5.50;2.98;;;;;;;1.28;94.58;99860.66;1821764;79;21330;-60
2021/03/01 03:31:32;;;;;;;4.47;2.90;;;;;;;1.28;94.73;99866.15;1821661;79;21135;-60
2021/03/01 03:34:00;;;;;;;5.15;2.72;;;;;;;1.28;94.64;99868.69;1821764;79;21292;-59
2021/03/01 03:36:32;;;;;;;3.87;2.65;;;;;;;1.27;94.44;99855.47;1821639;79;21137;-61
2021/03/01 03:39:05;;;;;;;5.72;3.10;;;;;;;1.27;94.38;99854.20;1821620;78;21276;-59
2021/03/01 03:41:34;;;;;;;6.25;3.05;;;;;;;1.28;94.35;99857.25;1821827;79;21125;-59
2021/03/01 03:44:05;;;;;;;4.67;3.05;;;;;;;1.33;94.43;99857.14;1821434;78;21284;-61
2021/03/01 03:46:33;;;;;;;6.15;3.35;;;;;;;1.37;94.11;99859.06;1821801;78;21165;-58
2021/03/01 03:49:03;;;;;;;5.50;3.20;;;;;;;1.42;94.05;99858.95;1821606;79;21291;-59
2021/03/01 03:51:32;;;;;;;4.53;2.90;;;;;;;1.48;93.84;99861.02;1821451;79;21300;-59
2021/03/01 03:54:04;;;;;;;5.60;3.42;;;;;;;1.53;93.70;99863.45;1821546;79;21120;-59
2021/03/01 03:56:33;;;;;;;6.75;3.40;;;;;;;1.56;93.19;99873.81;1821403;79;21248;-59
2021/03/01 03:59:11;;;;;;;4.80;3.27;;;;;;;1.56;93.04;99877.63;1821357;79;21284;-59
2021/03/01 04:01:41;;;;;;;6.97;4.20;;;;;;;1.53;92.81;99869.81;1821413;79;21164;-57
2021/03/01 04:04:10;;;;;;;7.28;5.67;;;;;;;1.53;92.85;99873.63;1821742;79;21114;-58
2021/03/01 04:06:42;;;;;;;7.08;5.03;;;;;;;1.54;92.93;99884.28;1821530;79;21154;-61
2021/03/01 04:09:12;;;;;;;8.35;5.37;;;;;;;1.56;92.74;99881.84;1821573;79;21106;-60
2021/03/01 04:11:43;;;;;;;6.62;4.25;;;;;;;1.58;92.84;99882.79;1821456;79;21169;-59
2021/03/01 04:14:21;;;;;;;7.28;4.00;;;;;;;1.62;92.53;99884.75;1821654;79;21178;-60
2021/03/01 04:16:53;;;;;;;6.30;3.47;;;;;;;1.58;92.41;99881.52;1821756;79;21166;-59
2021/03/01 04:19:24;;;;;;;6.42;3.85;;;;;;;1.58;92.59;99883.70;1817092;79;21150;-59
2021/03/01 04:21:59;;;;;;;6.87;4.10;;;;;;;1.61;92.58;99880.46;1821822;79;21300;-59
2021/03/01 04:24:29;;;;;;;8.48;4.90;;;;;;;1.67;92.45;99887.18;1821536;79;21138;-57
2021/03/01 04:27:01;;;;;;;11.18;5.47;;;;;;;1.74;92.27;99891.86;1821360;79;21161;-58
2021/03/01 04:29:31;;;;;;;9.23;5.10;;;;;;;1.70;92.04;99892.45;1821636;79;21663;-62
2021/03/01 04:31:59;;;;;;;10.58;4.75;;;;;;;1.66;91.98;99894.34;1821643;79;21138;-60
2021/03/01 04:34:28;;;;;;;6.97;4.50;;;;;;;1.64;91.94;99895.91;1821352;79;21134;-58
2021/03/01 04:36:57;;;;;;;8.35;5.08;;;;;;;1.60;91.91;99895.22;1821421;79;21142;-60
2021/03/01 04:39:25;;;;;;;8.30;5.58;;;;;;;1.63;92.09;99896.67;1821613;79;21208;-59
2021/03/01 04:41:53;;;;;;;7.25;4.90;;;;;;;1.68;91.87;99900.01;1821511;79;21280;-59
2021/03/01 04:44:22;;;;;;;7.12;4.53;;;;;;;1.71;91.63;99900.59;1821311;79;21166;-58
2021/03/01 04:46:53;;;;;;;7.70;4.78;;;;;;;1.73;91.50;99904.98;1821490;79;21271;-60
2021/03/01 04:49:23;;;;;;;7.40;4.93;;;;;;;1.78;91.49;99904.00;1818246;79;21346;-60
2021/03/01 04:51:52;;;;;;;8.80;4.90;;;;;;;1.85;91.35;99907.77;1812922;79;21958;-61
2021/03/01 04:54:21;;;;;;;8.23;5.17;;;;;;;1.85;90.72;99916.69;1812669;79;21247;-61
2021/03/01 04:56:50;;;;;;;11.45;6.33;;;;;;;1.88;90.61;99932.13;1812704;79;21170;-59
2021/03/01 04:59:20;;;;;;;14.75;7.97;;;;;;;1.87;90.41;99938.89;1812855;79;21114;-59
2021/03/01 05:01:51;;;;;;;9.15;5.15;;;;;;;1.86;89.91;99943.91;1813102;79;21146;-59
2021/03/01 05:04:19;;;;;;;8.13;5.00;;;;;;;1.83;89.81;99943.33;1812845;79;21162;-60
2021/03/01 05:06:48;;;;;;;9.00;5.58;;;;;;;1.80;89.70;99950.75;1812830;79;21117;-60
2021/03/01 05:09:17;;;;;;;11.78;7.22;;;;;;;1.77;89.89;99963.30;1813076;79;21157;-61
2021/03/01 05:11:45;;;;;;;13.60;8.00;;;;;;;1.77;90.04;99964.97;1813035;79;21169;-60
2021/03/01 05:14:13;;;;;;;19.42;10.82;;;;;;;1.74;90.19;99965.66;1812842;79;21154;-61
2021/03/01 05:16:41;;;;;;;17.70;10.40;;;;;;;1.74;90.49;99977.11;1813060;79;21277;-61
2021/03/01 05:19:09;;;;;;;13.25;9.08;;;;;;;1.78;90.66;99980.34;1812854;79;21284;-60
2021/03/01 05:21:37;;;;;;;15.53;8.65;;;;;;;1.81;90.55;99986.02;1813079;79;21118;-61
2021/03/01 05:24:07;;;;;;;14.10;8.85;;;;;;;1.81;90.53;99993.25;1813049;79;21130;-62
2021/03/01 05:26:35;;;;;;;13.15;8.18;;;;;;;1.84;90.77;99996.38;1812892;79;21288;-61
2021/03/01 05:29:04;;;;;;;10.25;6.55;;;;;;;1.86;90.57;99993.14;1812853;79;21134;-62
2021/03/01 05:31:32;;;;;;;15.45;7.53;;;;;;;1.79;90.52;99996.09;1812957;79;21149;-61
2021/03/01 05:34:00;;;;;;;14.30;8.18;;;;;;;1.76;90.85;99995.91;1812962;79;21197;-60
2021/03/01 05:36:28;;;;;;;15.63;8.65;;;;;;;1.76;91.01;100002.27;1812860;79;21292;-61
2021/03/01 05:38:57;;;;;;;21.00;9.10;;;;;;;1.77;91.05;100004.02;1813090;79;21175;-61
2021/03/01 05:41:27;;;;;;;16.25;9.00;;;;;;;1.76;91.01;100009.90;1812890;79;21277;-60
2021/03/01 05:43:55;;;;;;;17.12;8.80;;;;;;;1.71;91.18;100015.09;1813007;79;21142;-60
2021/03/01 05:46:23;;;;;;;17.57;10.28;;;;;;;1.67;91.35;100018.22;1813101;79;21161;-61
2021/03/01 05:48:56;;;;;;;21.85;11.10;;;;;;;1.59;91.46;100024.48;1790383;79;21285;-60
2021/03/01 05:51:27;;;;;;;19.10;10.32;;;;;;;1.59;91.98;100031.72;1812998;79;21271;-61
2021/03/01 05:54:01;;;;;;;20.90;11.20;;;;;;;1.59;92.00;100035.54;1813080;79;22012;-59
2021/03/01 05:56:29;;;;;;;18.50;10.48;;;;;;;1.57;92.35;100039.64;1812794;79;21147;-60
2021/03/01 05:58:58;;;;;;;16.37;9.25;;;;;;;1.60;92.48;100054.22;1812790;79;21143;-60
2021/03/01 06:01:26;;;;;;;14.80;9.58;;;;;;;1.56;92.64;100062.06;1812903;79;21219;-62
2021/03/01 06:03:55;;;;;;;14.30;9.23;;;;;;;1.55;92.92;100059.41;1812958;79;21138;-61
2021/03/01 06:06:22;;;;;;;15.10;9.05;;;;;;;1.58;93.06;100068.50;1812928;79;21264;-61
2021/03/01 06:08:50;;;;;;;15.72;9.65;;;;;;;1.58;93.17;100076.13;1812846;79;21260;-63
2021/03/01 06:11:18;;;;;;;15.93;8.58;;;;;;;1.55;93.20;100079.75;1813077;79;21284;-63
2021/03/01 06:13:45;;;;;;;16.75;9.93;;;;;;;1.51;93.25;100078.30;1812902;79;21272;-63
2021/03/01 06:16:13;;;;;;;19.12;10.32;;;;;;;1.48;93.44;100085.73;1812964;79;21131;-61
2021/03/01 06:18:46;;;;;;;16.55;8.70;;;;;;;1.49;93.81;100086.21;1812925;79;21130;-61
2021/03/01 06:21:16;;;;;;;15.60;9.68;;;;;;;1.55;93.81;100096.30;1812902;79;21147;-60
2021/03/01 06:23:45;;;;;;;11.80;8.05;;;;;;;1.54;93.91;100104.72;1812899;79;21305;-61
2021/03/01 06:26:34;;;;;;;12.03;7.62;;;;;;;1.55;93.72;100098.84;1812707;79;21289;-62
2021/03/01 06:29:08;;;;;;;12.82;7.67;;;;;;;1.55;93.72;100101.37;1812845;79;21158;-62
2021/03/01 06:31:44;;;;;;;11.43;7.85;;;;;;;1.54;93.92;100107.27;1812888;79;21430;-61
2021/03/01 06:34:29;;;;;;;13.38;7.65;;;;;;;1.56;93.86;100115.48;1812784;79;21358;-58
2021/03/01 06:37:08;;;;;;;12.98;6.92;;;;;;;1.62;93.70;100117.14;1812941;79;21240;-61
2021/03/01 06:39:48;;;;;;;16.12;8.43;;;;;;;1.63;93.30;100116.38;1812730;79;21178;-60
2021/03/01 06:42:20;;;;;;;22.17;10.82;;;;;;;1.65;93.45;100130.05;1812946;79;21193;-60
2021/03/01 06:45:04;;;;;;;15.72;9.55;;;;;;;1.65;93.36;100130.05;1812738;79;21308;-61
2021/03/01 06:47:54;;;;;;;15.50;9.35;;;;;;;1.65;93.19;100132.59;1812958;79;21168;-60
2021/03/01 06:50:33;;;;;;;20.90;11.70;;;;;;;1.66;93.29;100144.95;1813564;79;21153;-59
2021/03/01 06:53:14;;;;;;;16.93;9.78;;;;;;;1.73;93.45;100144.55;1812747;79;21154;-60
2021/03/01 06:56:07;;;;;;;15.83;8.88;;;;;;;1.77;93.20;100147.80;1792119;79;21252;-58
2021/03/01 06:58:45;;;;;;;13.65;8.05;;;;;;;1.81;93.03;100151.04;1807346;79;21345;-59
2021/03/01 07:01:20;;;;;;;15.40;9.30;;;;;;;1.86;92.96;100153.89;1774286;80;21146;-60
2021/03/01 07:03:51;;;;;;;13.40;8.30;;;;;;;1.89;93.03;100165.14;1770489;80;21181;-61
2021/03/01 07:06:19;;;;;;;11.88;7.55;;;;;;;2.00;93.22;100166.22;1773682;80;21323;-59
2021/03/01 07:08:53;;;;;;;11.63;7.60;;;;;;;2.09;92.83;100174.45;1779339;80;21161;-60
2021/03/01 07:11:33;;;;;;;18.67;7.92;;;;;;;2.12;92.17;100170.83;1762253;80;21288;-62
2021/03/01 07:14:14;;;;;;;12.35;7.17;;;;;;;2.14;92.00;100173.09;1775015;80;21173;-60
2021/03/01 07:16:57;;;;;;;13.05;8.55;;;;;;;2.11;91.89;100172.86;1765884;80;21232;-62
2021/03/01 07:19:32;;;;;;;17.00;10.38;;;;;;;2.11;91.95;100174.13;1739382;81;21196;-60
2021/03/01 07:22:08;;;;;;;19.60;13.38;;;;;;;2.12;91.88;100174.25;1739189;82;21153;-62
2021/03/01 07:24:35;;;;;;;15.38;10.20;;;;;;;2.12;91.66;100177.19;1739389;81;21138;-61
2021/03/01 07:27:05;;;;;;;14.60;9.23;;;;;;;2.14;91.79;100178.17;1739465;81;21179;-61
2021/03/01 07:29:39;;;;;;;17.02;10.80;;;;;;;2.22;91.77;100182.48;1739372;81;21255;-60
2021/03/01 07:32:13;;;;;;;18.23;11.88;;;;;;;2.25;91.33;100181.40;1739201;81;21173;-60
2021/03/01 07:34:42;;;;;;;13.53;9.20;;;;;;;2.25;91.08;100182.27;1739341;81;21160;-58
2021/03/01 07:37:10;;;;;;;18.82;12.23;;;;;;;2.29;91.12;100180.42;1739382;82;21130;-64
2021/03/01 07:39:37;;;;;;;18.00;11.20;;;;;;;2.38;90.84;100183.93;1739482;81;21192;-64
2021/03/01 07:42:09;;;;;;;19.57;11.57;;;;;;;2.45;90.71;100186.08;1739485;82;21560;-64
2021/03/01 07:44:38;;;;;;;13.00;9.10;;;;;;;2.51;90.00;100186.45;1718857;82;21153;-61
2021/03/01 07:47:08;;;;;;;10.35;6.53;;;;;;;2.51;89.67;100188.12;1739352;81;21304;-61
2021/03/01 07:49:48;;;;;;;9.93;7.03;;;;;;;2.49;89.21;100185.87;1738736;81;21122;-62
2021/03/01 07:52:27;;;;;;;13.55;7.45;;;;;;;2.45;88.89;100189.03;1738098;81;21236;-62
2021/03/01 07:55:10;;;;;;;12.90;8.33;;;;;;;2.46;89.13;100192.05;1738225;82;21348;-59
2021/03/01 07:57:40;;;;;;;14.25;7.87;;;;;;;2.53;88.94;100198.91;1737972;82;21691;-60
2021/03/01 08:00:33;;;;;;;17.25;8.13;;;;;;;2.57;88.72;100193.23;1740899;80;21316;-61
2021/03/01 08:03:35;;;;;;;15.20;9.10;;;;;;;2.61;88.66;100195.16;1735920;80;21147;-61
2021/03/01 08:06:05;;;;;;;12.65;7.65;;;;;;;2.59;88.33;100211.14;1772281;80;21200;-63
2021/03/01 08:08:44;;;;;;;9.53;6.97;;;;;;;2.47;88.22;100204.00;1747360;80;21174;-61
2021/03/01 08:11:12;;;;;;;10.53;6.42;;;;;;;2.43;88.33;100196.97;1726795;82;21222;-61
2021/03/01 08:13:40;;;;;;;10.88;7.62;;;;;;;2.38;88.60;100206.86;1743303;82;21218;-61
2021/03/01 08:16:22;;;;;;;11.15;7.78;;;;;;;2.31;88.65;100214.48;1743943;82;21319;-59
2021/03/01 08:18:57;;;;;;;11.20;6.60;;;;;;;2.30;88.92;100225.88;1743637;82;21225;-61
2021/03/01 08:21:26;;;;;;;10.70;6.78;;;;;;;2.25;88.90;100228.52;1722125;81;21155;-58
2021/03/01 08:23:54;;;;;;;13.58;7.80;;;;;;;2.25;89.04;100228.52;1725536;82;21272;-60
2021/03/01 08:26:30;;;;;;;10.05;6.08;;;;;;;2.28;89.26;100232.12;1717608;82;21194;-58
2021/03/01 08:29:04;;;;;;;13.05;7.10;;;;;;;2.37;89.21;100235.67;1708602;83;21154;-62
2021/03/01 08:31:35;;;;;;;13.62;8.13;;;;;;;2.46;88.79;100235.36;1707193;82;21273;-63
2021/03/01 08:34:26;;;;;;;10.75;6.05;;;;;;;2.56;88.83;100235.16;1712654;82;21127;-62
2021/03/01 08:36:56;;;;;;;8.50;5.53;;;;;;;2.60;88.26;100239.68;1735701;82;21585;-62
2021/03/01 08:39:59;;;;;;;9.78;6.42;;;;;;;2.60;88.18;100238.41;1728000;82;21198;-61
2021/03/01 08:43:03;;;;;;;7.00;4.75;;;;;;;2.57;87.90;100243.28;1779109;81;21328;-60
2021/03/01 08:45:41;;;;;;;9.23;5.90;;;;;;;2.59;87.86;100241.32;1763816;80;21007;-59
2021/03/01 08:48:20;;;;;;;8.00;5.65;;;;;;;2.68;87.82;100242.71;1775461;80;21506;-61
2021/03/01 08:50:51;;;;;;;6.80;4.15;;;;;;;2.79;87.73;100245.13;1767618;80;21153;-62
2021/03/01 08:53:26;;;;;;;11.48;6.65;;;;;;;2.84;86.36;100253.06;1781185;80;21510;-61
2021/03/01 08:55:58;;;;;;;10.05;5.40;;;;;;;2.88;86.91;100251.61;1787830;80;21113;-64
2021/03/01 08:58:30;;;;;;;9.90;5.47;;;;;;;2.98;86.34;100256.49;1780637;80;21127;-62
2021/03/01 09:01:02;;;;;;;;;;;;;;;3.02;85.84;100264.80;1778667;80;21033;-58
2021/03/01 09:03:40;;;;;;;7.62;4.70;;;;;;;3.08;85.46;100263.02;1771413;80;20133;-60
2021/03/01 09:06:14;;;;;;;7.15;4.47;;;;;;;3.11;85.27;100262.83;1752029;82;21050;-60
2021/03/01 09:08:45;;;;;;;7.90;5.03;;;;;;;3.18;84.92;100268.80;1751546;80;21241;-62
2021/03/01 09:11:26;;;;;;;8.23;5.55;;;;;;;3.23;84.67;100274.16;1753153;80;21109;-60
2021/03/01 09:13:58;;;;;;;7.53;5.08;;;;;;;3.27;84.72;100273.56;1753724;80;21186;-62
2021/03/01 09:16:29;;;;;;;7.65;4.97;;;;;;;3.34;84.75;100277.38;1750008;80;21221;-59
2021/03/01 09:19:04;;;;;;;5.85;4.22;;;;;;;3.42;84.35;100283.42;1747886;82;21381;-58
2021/03/01 09:21:39;;;;;;;6.78;4.22;;;;;;;3.54;83.41;100283.70;1744356;82;21108;-61
2021/03/01 09:24:13;;;;;;;8.10;4.58;;;;;;;3.59;83.00;100289.56;1756743;82;21070;-62
2021/03/01 09:26:45;;;;;;;8.33;4.80;;;;;;;3.64;82.57;100291.98;1756948;82;21027;-63
2021/03/01 09:29:20;;;;;;;7.33;4.67;;;;;;;3.70;82.52;100299.13;1757273;82;21059;-62
2021/03/01 09:31:53;;;;;;;6.83;4.28;;;;;;;3.76;82.37;100303.30;1757161;82;21619;-59
2021/03/01 09:34:27;;;;;;;7.00;4.67;;;;;;;3.85;81.66;100305.55;1757177;80;21642;-60
2021/03/01 09:36:57;;;;;;;8.70;5.90;;;;;;;3.96;81.44;100304.89;1732225;82;21168;-60
2021/03/01 09:39:26;;;;;;;7.85;5.10;;;;;;;4.10;81.63;100295.97;1733665;82;21216;-63
2021/03/01 09:41:56;;;;;;;11.10;7.10;;;;;;;4.20;80.48;100306.33;1727345;83;21056;-61
2021/03/01 09:44:30;;;;;;;8.38;6.20;;;;;;;4.23;80.49;100303.08;1727406;83;21215;-59
2021/03/01 09:47:00;;;;;;;11.45;6.60;;;;;;;4.25;80.56;100309.13;1727344;83;21044;-63
2021/03/01 09:49:34;;;;;;;15.03;8.43;;;;;;;4.27;80.50;100310.10;1727297;83;21230;-61
2021/03/01 09:52:02;;;;;;;15.23;8.90;;;;;;;4.30;80.40;100312.83;1725267;83;21269;-59
2021/03/01 09:54:31;;;;;;;9.05;5.50;;;;;;;4.27;80.20;100316.49;1706516;84;21179;-61
2021/03/01 09:57:07;;;;;;;10.45;6.05;;;;;;;4.22;79.90;100320.45;1706333;83;21092;-64
2021/03/01 09:59:41;;;;;;;11.83;6.37;;;;;;;4.19;79.94;100312.22;1706486;84;21072;-60
2021/03/01 10:02:22;;;;;;;8.80;6.15;;;;;;;4.24;80.20;100313.77;1706351;83;21092;-62
2021/03/01 10:04:55;;;;;;;8.15;5.20;;;;;;;4.40;79.63;100308.76;1706451;84;21211;-64
2021/03/01 10:07:28;;;;;;;8.05;5.40;;;;;;;4.70;78.76;100301.03;1699837;84;21187;-59
2021/03/01 10:09:57;;;;;;;8.65;5.78;;;;;;;4.95;77.54;100308.39;1716288;83;21073;-60
2021/03/01 10:12:26;;;;;;;7.85;4.85;;;;;;;5.19;76.93;100307.55;1713483;83;21193;-61
2021/03/01 10:14:59;;;;;;;6.67;4.37;;;;;;;5.33;75.69;100310.47;1741620;81;21197;-60
2021/03/01 10:17:34;;;;;;;6.30;4.10;;;;;;;5.36;75.16;100311.03;1741797;81;21086;-64
2021/03/01 10:20:14;;;;;;;7.12;4.12;;;;;;;5.36;74.75;100305.91;1741635;81;21071;-61
2021/03/01 10:23:04;;;;;;;8.75;5.12;;;;;;;5.37;74.46;100300.02;1740972;81;21095;-60
2021/03/01 10:25:41;;;;;;;7.90;5.35;;;;;;;5.37;74.44;100293.20;1741613;81;21062;-58
2021/03/01 10:28:33;;;;;;;6.55;4.33;;;;;;;5.34;74.12;100289.21;1741593;81;21271;-59
2021/03/01 10:31:09;;;;;;;;;;;;;;;5.11;73.67;100287.08;1744393;82;21055;-61
2021/03/01 10:33:57;;;;;;;7.58;4.95;;;;;;;4.96;74.48;100293.52;1741834;81;20221;-61
2021/03/01 10:36:33;;;;;;;7.10;4.65;;;;;;;4.87;75.14;100293.91;1741652;81;21216;-59
2021/03/01 10:39:21;;;;;;;6.83;4.70;;;;;;;4.86;75.88;100292.16;1741632;81;21067;-62
2021/03/01 10:41:54;;;;;;;8.70;4.97;;;;;;;4.86;75.89;100289.60;1741944;81;21023;-63
2021/03/01 10:44:32;;;;;;;8.73;5.12;;;;;;;4.84;76.12;100295.02;1741482;81;21074;-63
2021/03/01 10:47:22;;;;;;;9.15;5.20;;;;;;;4.91;76.68;100291.11;1869710;76;22190;-62
2021/03/01 10:50:02;;;;;;;5.80;4.08;;;;;;;4.85;76.17;100304.45;1827513;78;21272;-62
2021/03/01 10:52:31;;;;;;;6.17;4.53;;;;;;;4.79;76.21;100305.40;1827596;77;21111;-63
2021/03/01 10:55:00;;;;;;;7.22;4.65;;;;;;;4.77;75.31;100304.42;1827511;77;21157;-60
2021/03/01 10:57:28;;;;;;;7.22;4.50;;;;;;;4.69;75.49;100313.35;1807344;78;21110;-58
2021/03/01 10:59:58;;;;;;;9.23;6.03;;;;;;;4.63;75.60;100306.59;1827710;78;21138;-60
2021/03/01 11:02:26;;;;;;;7.97;5.55;;;;;;;4.52;76.16;100309.43;1827634;78;21137;-59
2021/03/01 11:04:54;;;;;;;8.90;4.90;;;;;;;4.48;76.46;100311.75;1827378;78;21287;-64
2021/03/01 11:07:21;;;;;;;7.50;4.90;;;;;;;4.37;77.00;100315.35;1806014;78;21115;-60
2021/03/01 11:09:49;;;;;;;8.20;5.95;;;;;;;4.28;76.91;100309.33;1795255;78;21149;-60
2021/03/01 11:12:17;;;;;;;10.38;6.35;;;;;;;4.25;77.46;100311.31;1794996;80;21279;-60
2021/03/01 11:14:45;;;;;;;9.48;6.42;;;;;;;4.21;77.69;100312.32;1795033;80;21149;-61
2021/03/01 11:17:12;;;;;;;9.38;6.58;;;;;;;4.26;77.97;100305.80;1795317;80;21209;-60
2021/03/01 11:19:41;;;;;;;13.38;8.18;;;;;;;4.30;77.97;100302.61;1811762;77;21130;-63
2021/03/01 11:22:09;;;;;;;13.95;7.47;;;;;;;4.30;78.10;100307.72;1827731;78;21145;-61
2021/03/01 11:24:37;;;;;;;9.73;6.72;;;;;;;4.40;78.31;100305.30;1827526;78;21272;-61
2021/03/01 11:27:05;;;;;;;12.03;8.60;;;;;;;4.55;78.27;100304.52;1827560;77;21271;-62
2021/03/01 11:29:33;;;;;;;12.15;7.47;;;;;;;4.68;77.79;100302.63;1827533;78;21133;-60
2021/03/01 11:32:01;;;;;;;10.23;7.67;;;;;;;4.59;77.66;100304.28;1827637;77;21272;-60
2021/03/01 11:34:30;;;;;;;11.38;7.10;;;;;;;4.45;77.68;100303.52;1827383;78;21313;-61
2021/03/01 11:36:57;;;;;;;10.82;6.90;;;;;;;4.25;78.02;100306.57;1827475;78;21312;-61
2021/03/01 11:39:25;;;;;;;10.82;7.37;;;;;;;4.07;78.40;100309.84;1827474;78;21130;-63
2021/03/01 11:41:53;;;;;;;12.00;8.05;;;;;;;4.00;78.84;100308.13;1827396;77;21316;-62
2021/03/01 11:44:22;;;;;;;11.18;7.58;;;;;;;3.97;79.24;100309.20;1826816;78;21130;-63
2021/03/01 11:46:49;;;;;;;7.37;5.28;;;;;;;3.94;79.49;100312.45;1827295;78;21146;-62
2021/03/01 11:49:18;;;;;;;8.40;5.62;;;;;;;3.86;79.59;100314.55;1827822;78;21284;-63
2021/03/01 11:51:45;;;;;;;12.20;7.92;;;;;;;3.73;80.34;100317.58;1827946;77;21225;-61
2021/03/01 11:54:13;;;;;;;13.83;9.00;;;;;;;3.63;81.42;100313.18;1822165;78;21130;-61
2021/03/01 11:56:41;;;;;;;12.90;7.83;;;;;;;3.64;82.16;100319.19;1800069;78;21147;-61
2021/03/01 11:59:09;;;;;;;13.05;9.15;;;;;;;3.60;82.46;100314.28;1818953;78;21284;-61